createdAt,value
2017-05-05T00:00:00.432Z,0
2017-05-05T00:01:22.218Z,0
2017-05-05T00:02:44.011Z,0
2017-05-05T00:04:05.854Z,0
2017-05-05T00:05:27.758Z,0
2017-05-05T00:06:49.520Z,0
2017-05-05T00:08:11.360Z,0
2017-05-05T00:09:33.175Z,0
2017-05-05T00:10:55.171Z,0
2017-05-05T00:12:17.092Z,0
2017-05-05T00:13:38.934Z,0
2017-05-05T00:15:01.858Z,0
2017-05-05T00:16:23.651Z,0
2017-05-05T00:17:45.978Z,0
2017-05-05T00:19:08.528Z,0
2017-05-05T00:20:30.253Z,0
2017-05-05T00:21:52.141Z,0
2017-05-05T00:23:13.873Z,0
2017-05-05T00:24:35.691Z,0
2017-05-05T00:25:57.442Z,0
2017-05-05T00:27:19.468Z,0
2017-05-05T00:28:41.547Z,0
2017-05-05T00:30:03.231Z,0
2017-05-05T00:31:25.094Z,0
2017-05-05T00:32:47.887Z,0
2017-05-05T00:34:09.676Z,0
2017-05-05T00:35:31.429Z,0
2017-05-05T00:36:54.313Z,0
2017-05-05T00:38:16.611Z,0
2017-05-05T00:39:38.356Z,0
2017-05-05T00:41:00.147Z,0
2017-05-05T00:42:21.897Z,0
2017-05-05T00:43:43.751Z,0
2017-05-05T00:45:06.579Z,0
2017-05-05T00:46:28.413Z,0
2017-05-05T00:47:50.180Z,0
2017-05-05T00:49:12.052Z,0
2017-05-05T00:50:34.146Z,0
2017-05-05T00:51:56.431Z,0
2017-05-05T00:53:18.264Z,0
2017-05-05T00:54:40.131Z,0
2017-05-05T00:56:01.910Z,0
2017-05-05T00:57:23.777Z,0
2017-05-05T00:58:45.686Z,0
2017-05-05T01:00:07.462Z,0
2017-05-05T01:01:29.216Z,0
2017-05-05T01:02:51.026Z,0
2017-05-05T01:04:13.826Z,0
2017-05-05T01:05:35.570Z,0
2017-05-05T01:06:57.345Z,0
2017-05-05T01:08:19.124Z,0
2017-05-05T01:09:40.987Z,0
2017-05-05T01:11:02.967Z,0
2017-05-05T01:12:25.826Z,0
2017-05-05T01:13:49.639Z,0
2017-05-05T01:15:11.424Z,0
2017-05-05T01:16:33.364Z,0
2017-05-05T01:17:55.189Z,0
2017-05-05T01:19:17.028Z,0
2017-05-05T01:20:39.831Z,0
2017-05-05T01:22:01.701Z,0
2017-05-05T01:23:23.532Z,0
2017-05-05T01:24:45.843Z,0
2017-05-05T01:26:07.687Z,0
2017-05-05T01:27:31.671Z,0
2017-05-05T01:28:53.412Z,0
2017-05-05T01:30:15.261Z,0
2017-05-05T01:31:37.045Z,0
2017-05-05T01:32:59.873Z,0
2017-05-05T01:34:26.647Z,0
2017-05-05T01:35:48.433Z,0
2017-05-05T01:37:11.257Z,0
2017-05-05T01:38:33.046Z,0
2017-05-05T01:39:54.778Z,0
2017-05-05T01:41:16.621Z,0
2017-05-05T01:42:38.366Z,0
2017-05-05T01:44:00.169Z,0
2017-05-05T01:45:21.948Z,0
2017-05-05T01:46:43.709Z,0
2017-05-05T01:48:05.481Z,0
2017-05-05T01:49:27.291Z,0
2017-05-05T01:50:49.160Z,0
2017-05-05T01:52:11.886Z,0
2017-05-05T01:53:34.673Z,0
2017-05-05T01:54:57.565Z,0
2017-05-05T01:56:19.427Z,0
2017-05-05T01:57:41.153Z,0
2017-05-05T01:59:03.886Z,0
2017-05-05T02:00:26.256Z,0
2017-05-05T02:01:48.396Z,0
2017-05-05T02:03:10.203Z,0
2017-05-05T02:04:32.006Z,0
2017-05-05T02:05:54.807Z,0
2017-05-05T02:07:18.588Z,0
2017-05-05T02:08:40.346Z,0
2017-05-05T02:10:02.162Z,0
2017-05-05T02:11:23.995Z,0
2017-05-05T02:12:47.805Z,0
2017-05-05T02:14:09.539Z,0
2017-05-05T02:15:31.312Z,0
2017-05-05T02:16:54.196Z,0
2017-05-05T02:18:16.001Z,0
2017-05-05T02:19:37.847Z,0
2017-05-05T02:20:59.646Z,0
2017-05-05T02:22:21.398Z,0
2017-05-05T02:23:43.191Z,0
2017-05-05T02:25:05.002Z,0
2017-05-05T02:26:36.602Z,0
2017-05-05T02:27:58.535Z,0
2017-05-05T02:29:20.283Z,0
2017-05-05T02:30:42.100Z,0
2017-05-05T02:32:04.946Z,0
2017-05-05T02:33:28.322Z,0
2017-05-05T02:34:50.522Z,0
2017-05-05T02:36:12.389Z,0
2017-05-05T02:37:34.174Z,0
2017-05-05T02:38:57.133Z,0
2017-05-05T02:40:18.853Z,0
2017-05-05T02:41:41.645Z,0
2017-05-05T02:43:03.367Z,0
2017-05-05T02:44:25.246Z,0
2017-05-05T02:45:46.997Z,0
2017-05-05T02:47:08.803Z,0
2017-05-05T02:48:30.648Z,0
2017-05-05T02:49:52.424Z,0
2017-05-05T02:51:15.245Z,0
2017-05-05T02:52:37.056Z,0
2017-05-05T02:53:58.877Z,0
2017-05-05T02:55:20.677Z,0
2017-05-05T02:56:42.468Z,0
2017-05-05T02:58:04.187Z,0
2017-05-05T02:59:25.983Z,0
2017-05-05T03:00:48.945Z,0
2017-05-05T03:02:11.643Z,0
2017-05-05T03:03:34.460Z,0
2017-05-05T03:04:56.231Z,0
2017-05-05T03:07:27.728Z,0
2017-05-05T03:08:51.074Z,0
2017-05-05T03:10:12.856Z,0
2017-05-05T03:11:34.808Z,0
2017-05-05T03:12:56.624Z,0
2017-05-05T03:14:18.402Z,0
2017-05-05T03:15:40.154Z,0
2017-05-05T03:17:02.024Z,0
2017-05-05T03:18:23.936Z,0
2017-05-05T03:19:45.691Z,0
2017-05-05T03:21:08.543Z,0
2017-05-05T03:22:30.424Z,0
2017-05-05T03:23:52.318Z,0
2017-05-05T03:25:15.152Z,0
2017-05-05T03:26:37.058Z,0
2017-05-05T03:27:58.917Z,0
2017-05-05T03:29:20.731Z,0
2017-05-05T03:30:42.548Z,0
2017-05-05T03:32:04.415Z,0
2017-05-05T03:33:26.253Z,0
2017-05-05T03:34:48.993Z,0
2017-05-05T03:36:11.818Z,0
2017-05-05T03:37:33.586Z,0
2017-05-05T03:38:55.444Z,0
2017-05-05T03:40:17.229Z,0
2017-05-05T03:41:39.993Z,0
2017-05-05T03:43:01.998Z,0
2017-05-05T03:44:23.816Z,0
2017-05-05T03:45:45.538Z,0
2017-05-05T03:47:07.411Z,0
2017-05-05T03:48:29.188Z,0
2017-05-05T03:49:51.979Z,0
2017-05-05T03:51:13.780Z,0
2017-05-05T03:52:35.525Z,0
2017-05-05T03:53:57.291Z,0
2017-05-05T03:55:20.013Z,0
2017-05-05T03:56:41.819Z,0
2017-05-05T03:58:03.592Z,0
2017-05-05T03:59:25.467Z,5
2017-05-05T04:00:47.258Z,5
2017-05-05T04:02:08.976Z,5
2017-05-05T04:03:30.761Z,5
2017-05-05T04:04:52.524Z,5
2017-05-05T04:06:14.297Z,10
2017-05-05T04:07:36.097Z,10
2017-05-05T04:08:59.840Z,15
2017-05-05T04:10:22.629Z,15
2017-05-05T04:11:44.467Z,15
2017-05-05T04:13:06.350Z,20
2017-05-05T04:14:28.189Z,20
2017-05-05T04:15:50.017Z,20
2017-05-05T04:17:11.860Z,20
2017-05-05T04:18:34.113Z,20
2017-05-05T04:19:56.075Z,20
2017-05-05T04:21:17.987Z,25
2017-05-05T04:22:40.851Z,25
2017-05-05T04:24:02.668Z,25
2017-05-05T04:25:24.408Z,25
2017-05-05T04:26:47.223Z,25
2017-05-05T04:28:09.012Z,25
2017-05-05T04:29:30.786Z,25
2017-05-05T04:30:52.618Z,30
2017-05-05T04:32:14.482Z,35
2017-05-05T04:33:37.454Z,40
2017-05-05T04:34:59.332Z,45
2017-05-05T04:36:23.227Z,45
2017-05-05T04:37:46.216Z,45
2017-05-05T04:39:08.059Z,50
2017-05-05T04:40:29.891Z,50
2017-05-05T04:41:52.757Z,60
2017-05-05T04:43:14.597Z,60
2017-05-05T04:44:36.476Z,60
2017-05-05T04:45:59.270Z,60
2017-05-05T04:47:22.155Z,60
2017-05-05T04:48:44.123Z,60
2017-05-05T04:50:05.906Z,60
2017-05-05T04:51:27.744Z,60
2017-05-05T04:52:51.115Z,55
2017-05-05T04:54:13.380Z,50
2017-05-05T04:55:36.287Z,45
2017-05-05T04:56:58.014Z,40
2017-05-05T04:58:19.805Z,45
2017-05-05T04:59:41.545Z,45
2017-05-05T05:01:03.536Z,55
2017-05-05T05:02:25.347Z,60
2017-05-05T05:03:47.173Z,55
2017-05-05T05:05:09.028Z,55
2017-05-05T05:06:30.974Z,60
2017-05-05T05:07:55.826Z,55
2017-05-05T05:09:19.681Z,55
2017-05-05T05:10:41.494Z,65
2017-05-05T05:12:03.285Z,80
2017-05-05T05:13:25.139Z,90
2017-05-05T05:14:46.936Z,105
2017-05-05T05:16:09.820Z,130
2017-05-05T05:17:31.767Z,140
2017-05-05T05:18:53.680Z,145
2017-05-05T05:20:15.511Z,160
2017-05-05T05:21:37.390Z,150
2017-05-05T05:22:59.246Z,185
2017-05-05T05:24:21.119Z,225
2017-05-05T05:25:42.841Z,225
2017-05-05T05:27:04.956Z,275
2017-05-05T05:28:27.226Z,310
2017-05-05T05:29:49.162Z,320
2017-05-05T05:31:20.804Z,315
2017-05-05T05:32:42.665Z,300
2017-05-05T05:34:04.454Z,300
2017-05-05T05:35:26.268Z,295
2017-05-05T05:36:48.989Z,280
2017-05-05T05:38:11.297Z,280
2017-05-05T05:39:33.174Z,290
2017-05-05T05:40:54.973Z,320
2017-05-05T05:42:16.766Z,320
2017-05-05T05:43:38.595Z,300
2017-05-05T05:45:00.436Z,300
2017-05-05T05:46:22.236Z,315
2017-05-05T05:47:44.083Z,335
2017-05-05T05:49:05.980Z,355
2017-05-05T05:50:27.931Z,380
2017-05-05T05:51:49.804Z,400
2017-05-05T05:53:12.602Z,395
2017-05-05T05:54:34.383Z,405
2017-05-05T05:55:56.315Z,395
2017-05-05T05:57:18.148Z,405
2017-05-05T05:58:39.897Z,405
2017-05-05T06:00:01.654Z,395
2017-05-05T06:01:23.592Z,390
2017-05-05T06:02:45.638Z,385
2017-05-05T06:04:08.092Z,385
2017-05-05T06:05:29.974Z,375
2017-05-05T06:06:52.676Z,390
2017-05-05T06:08:14.544Z,425
2017-05-05T06:09:36.309Z,460
2017-05-05T06:10:58.139Z,465
2017-05-05T06:12:20.080Z,465
2017-05-05T06:13:41.936Z,470
2017-05-05T06:15:03.806Z,485
2017-05-05T06:16:25.637Z,435
2017-05-05T06:17:47.501Z,400
2017-05-05T06:19:09.351Z,440
2017-05-05T06:20:31.124Z,485
2017-05-05T06:21:52.856Z,480
2017-05-05T06:23:14.674Z,500
2017-05-05T06:24:36.518Z,550
2017-05-05T06:25:58.318Z,540
2017-05-05T06:27:20.190Z,490
2017-05-05T06:28:41.991Z,550
2017-05-05T06:30:03.769Z,555
2017-05-05T06:31:26.598Z,590
2017-05-05T06:32:48.439Z,590
2017-05-05T06:34:10.360Z,525
2017-05-05T06:35:32.141Z,505
2017-05-05T06:36:54.286Z,620
2017-05-05T06:38:16.516Z,630
2017-05-05T06:39:39.431Z,605
2017-05-05T06:41:01.326Z,540
2017-05-05T06:42:24.056Z,505
2017-05-05T06:43:45.959Z,360
2017-05-05T06:45:07.751Z,295
2017-05-05T06:46:29.516Z,315
2017-05-05T06:47:51.287Z,335
2017-05-05T06:49:13.046Z,360
2017-05-05T06:50:34.830Z,400
2017-05-05T06:51:56.586Z,455
2017-05-05T06:53:18.389Z,335
2017-05-05T06:54:40.091Z,260
2017-05-05T06:56:01.866Z,245
2017-05-05T06:57:24.677Z,285
2017-05-05T06:58:46.486Z,360
2017-05-05T07:00:08.278Z,450
2017-05-05T07:01:30.146Z,480
2017-05-05T07:02:51.951Z,520
2017-05-05T07:04:13.722Z,525
2017-05-05T07:05:35.547Z,555
2017-05-05T07:06:57.354Z,620
2017-05-05T07:08:19.134Z,695
2017-05-05T07:09:43.519Z,630
2017-05-05T07:11:05.368Z,545
2017-05-05T07:12:27.398Z,500
2017-05-05T07:13:49.663Z,485
2017-05-05T07:15:44.045Z,495
2017-05-05T07:17:36.290Z,550
2017-05-05T07:19:07.827Z,540
2017-05-05T07:20:35.900Z,465
2017-05-05T07:21:59.442Z,435
2017-05-05T07:23:32.498Z,480
2017-05-05T07:24:55.504Z,535
2017-05-05T07:26:47.464Z,570
2017-05-05T07:28:38.802Z,645
2017-05-05T07:30:30.852Z,685
2017-05-05T07:32:22.871Z,690
2017-05-05T07:34:18.696Z,740
2017-05-05T07:36:09.147Z,875
2017-05-05T07:37:59.916Z,925
2017-05-05T07:39:52.505Z,1010
2017-05-05T07:41:44.609Z,1200
2017-05-05T07:43:35.854Z,1215
2017-05-05T07:45:28.486Z,1115
2017-05-05T07:47:19.754Z,1120
2017-05-05T07:49:10.281Z,1295
2017-05-05T07:51:00.113Z,1410
2017-05-05T07:52:49.720Z,1245
2017-05-05T07:54:34.444Z,975
2017-05-05T07:55:56.242Z,850
2017-05-05T07:57:18.113Z,670
2017-05-05T07:58:39.925Z,440
2017-05-05T08:00:01.630Z,285
2017-05-05T08:01:23.415Z,245
2017-05-05T08:02:45.151Z,295
2017-05-05T08:04:07.015Z,370
2017-05-05T08:05:28.862Z,465
2017-05-05T08:06:50.633Z,525
2017-05-05T08:08:12.449Z,545
2017-05-05T08:09:34.233Z,580
2017-05-05T08:10:56.106Z,635
2017-05-05T08:12:17.952Z,675
2017-05-05T08:13:39.784Z,720
2017-05-05T08:15:01.597Z,765
2017-05-05T08:16:23.424Z,780
2017-05-05T08:17:45.230Z,795
2017-05-05T08:19:07.126Z,810
2017-05-05T08:20:33.092Z,845
2017-05-05T08:21:56.057Z,840
2017-05-05T08:23:18.080Z,840
2017-05-05T08:24:40.290Z,830
2017-05-05T08:26:02.232Z,820
2017-05-05T08:27:23.972Z,830
2017-05-05T08:28:45.791Z,875
2017-05-05T08:30:07.756Z,915
2017-05-05T08:31:29.684Z,940
2017-05-05T08:32:51.403Z,880
2017-05-05T08:34:13.262Z,850
2017-05-05T08:35:35.066Z,840
2017-05-05T08:36:57.064Z,770
2017-05-05T08:38:18.893Z,650
2017-05-05T08:39:40.749Z,550
2017-05-05T08:41:03.755Z,545
2017-05-05T08:42:26.129Z,620
2017-05-05T08:43:47.999Z,730
2017-05-05T08:45:09.775Z,800
2017-05-05T08:46:31.640Z,810
2017-05-05T08:47:53.481Z,910
2017-05-05T08:49:15.335Z,955
2017-05-05T08:50:37.230Z,980
2017-05-05T08:51:59.075Z,995
2017-05-05T08:53:20.969Z,1040
2017-05-05T08:54:42.756Z,1060
2017-05-05T08:56:04.651Z,980
2017-05-05T08:57:26.383Z,880
2017-05-05T08:58:48.456Z,790
2017-05-05T09:00:10.331Z,720
2017-05-05T09:01:32.760Z,655
2017-05-05T09:02:55.967Z,660
2017-05-05T09:04:18.851Z,670
2017-05-05T09:05:40.664Z,710
2017-05-05T09:07:02.655Z,755
2017-05-05T09:08:24.841Z,830
2017-05-05T09:09:46.670Z,905
2017-05-05T09:11:08.506Z,985
2017-05-05T09:12:30.448Z,1075
2017-05-05T09:13:52.300Z,1115
2017-05-05T09:15:14.169Z,1035
2017-05-05T09:16:36.008Z,925
2017-05-05T09:17:57.857Z,815
2017-05-05T09:19:19.810Z,770
2017-05-05T09:20:41.574Z,700
2017-05-05T09:22:03.410Z,620
2017-05-05T09:23:25.370Z,545
2017-05-05T09:24:47.242Z,480
2017-05-05T09:26:09.069Z,460
2017-05-05T09:27:30.921Z,475
2017-05-05T09:28:52.780Z,500
2017-05-05T09:30:14.554Z,530
2017-05-05T09:31:36.341Z,575
2017-05-05T09:32:58.122Z,610
2017-05-05T09:34:20.257Z,610
2017-05-05T09:35:42.061Z,660
2017-05-05T09:37:04.106Z,725
2017-05-05T09:38:25.868Z,880
2017-05-05T09:39:47.944Z,1085
2017-05-05T09:41:09.682Z,1295
2017-05-05T09:42:31.512Z,1485
2017-05-05T09:43:53.314Z,1420
2017-05-05T09:45:15.105Z,1335
2017-05-05T09:46:36.855Z,1120
2017-05-05T09:47:58.734Z,1010
2017-05-05T09:49:20.587Z,840
2017-05-05T09:50:42.526Z,675
2017-05-05T09:52:04.555Z,615
2017-05-05T09:53:26.347Z,590
2017-05-05T09:54:48.287Z,625
2017-05-05T09:56:10.132Z,675
2017-05-05T09:57:31.992Z,790
2017-05-05T09:58:53.837Z,885
2017-05-05T10:00:15.658Z,955
2017-05-05T10:01:38.142Z,1020
2017-05-05T10:03:00.051Z,1040
2017-05-05T10:04:22.708Z,1110
2017-05-05T10:05:44.606Z,1225
2017-05-05T10:07:06.567Z,1400
2017-05-05T10:08:28.307Z,1500
2017-05-05T10:09:51.212Z,1660
2017-05-05T10:11:13.001Z,1740
2017-05-05T10:12:35.063Z,1935
2017-05-05T10:13:57.197Z,2325
2017-05-05T10:15:19.178Z,3540
2017-05-05T10:16:41.196Z,4245
2017-05-05T10:18:03.223Z,3375
2017-05-05T10:19:25.101Z,2345
2017-05-05T10:20:46.945Z,2340
2017-05-05T10:22:08.730Z,2150
2017-05-05T10:23:30.562Z,1880
2017-05-05T10:24:52.364Z,1855
2017-05-05T10:26:14.316Z,2620
2017-05-05T10:27:37.150Z,3720
2017-05-05T10:28:58.915Z,4020
2017-05-05T10:30:20.722Z,4555
2017-05-05T10:31:42.523Z,4645
2017-05-05T10:33:04.313Z,4320
2017-05-05T10:34:26.159Z,5105
2017-05-05T10:35:48.064Z,4995
2017-05-05T10:37:09.894Z,5400
2017-05-05T10:38:31.747Z,5470
2017-05-05T10:39:53.596Z,3270
2017-05-05T10:41:15.522Z,5175
2017-05-05T10:42:37.310Z,3115
2017-05-05T10:43:59.084Z,5600
2017-05-05T10:45:20.805Z,6190
2017-05-05T10:46:42.589Z,5780
2017-05-05T10:48:04.883Z,2875
2017-05-05T10:49:26.963Z,2940
2017-05-05T10:50:48.993Z,3715
2017-05-05T10:52:10.762Z,4325
2017-05-05T10:53:32.497Z,2300
2017-05-05T10:54:54.199Z,3030
2017-05-05T10:56:16.087Z,1190
2017-05-05T10:57:37.880Z,1065
2017-05-05T10:58:59.724Z,1040
2017-05-05T11:00:21.581Z,1025
2017-05-05T11:01:43.525Z,1060
2017-05-05T11:03:05.334Z,1135
2017-05-05T11:04:27.074Z,1205
2017-05-05T11:05:48.924Z,1315
2017-05-05T11:07:11.364Z,1440
2017-05-05T11:08:33.157Z,1480
2017-05-05T11:09:54.996Z,1390
2017-05-05T11:11:16.756Z,1270
2017-05-05T11:12:48.288Z,1235
2017-05-05T11:14:10.093Z,1200
2017-05-05T11:15:31.963Z,1135
2017-05-05T11:16:54.753Z,1150
2017-05-05T11:18:21.941Z,1125
2017-05-05T11:19:43.803Z,1125
2017-05-05T11:21:05.615Z,1170
2017-05-05T11:22:27.418Z,1305
2017-05-05T11:23:49.562Z,1620
2017-05-05T11:25:11.606Z,1870
2017-05-05T11:26:33.379Z,1940
2017-05-05T11:27:55.229Z,1700
2017-05-05T11:29:17.100Z,1760
2017-05-05T11:30:38.998Z,1790
2017-05-05T11:32:00.836Z,1900
2017-05-05T11:33:22.725Z,2140
2017-05-05T11:34:44.498Z,2720
2017-05-05T11:36:06.267Z,2880
2017-05-05T11:37:28.066Z,2565
2017-05-05T11:38:51.005Z,3240
2017-05-05T11:40:12.846Z,3380
2017-05-05T11:41:34.704Z,3990
2017-05-05T11:42:56.596Z,2340
2017-05-05T11:44:18.403Z,2520
2017-05-05T11:45:40.329Z,4350
2017-05-05T11:47:02.179Z,4965
2017-05-05T11:48:24.030Z,2530
2017-05-05T11:49:45.870Z,1725
2017-05-05T11:51:07.621Z,1605
2017-05-05T11:52:29.554Z,1425
2017-05-05T11:53:51.397Z,1850
2017-05-05T11:55:13.256Z,2065
2017-05-05T11:56:35.165Z,2185
2017-05-05T11:57:57.053Z,4185
2017-05-05T11:59:18.872Z,1240
2017-05-05T12:00:40.681Z,1375
2017-05-05T12:02:02.625Z,2350
2017-05-05T12:03:24.579Z,5405
2017-05-05T12:04:46.597Z,4505
2017-05-05T12:06:08.495Z,2200
2017-05-05T12:07:30.259Z,1600
2017-05-05T12:08:52.039Z,2045
2017-05-05T12:10:13.816Z,6655
2017-05-05T12:11:35.673Z,6405
2017-05-05T12:12:57.489Z,5710
2017-05-05T12:14:19.317Z,6050
2017-05-05T12:15:41.117Z,6155
2017-05-05T12:17:02.911Z,4510
2017-05-05T12:18:24.851Z,5950
2017-05-05T12:19:46.599Z,6045
2017-05-05T12:21:08.370Z,6140
2017-05-05T12:22:30.156Z,2600
2017-05-05T12:23:52.143Z,2670
2017-05-05T12:25:14.092Z,1960
2017-05-05T12:26:35.898Z,2430
2017-05-05T12:27:58.045Z,2135
2017-05-05T12:29:19.924Z,2295
2017-05-05T12:30:41.827Z,1940
2017-05-05T12:32:03.617Z,1720
2017-05-05T12:33:25.477Z,1700
2017-05-05T12:34:47.368Z,1790
2017-05-05T12:36:09.118Z,2135
2017-05-05T12:37:31.010Z,2195
2017-05-05T12:38:52.947Z,2160
2017-05-05T12:40:14.822Z,2125
2017-05-05T12:41:36.652Z,4840
2017-05-05T12:42:58.512Z,4870
2017-05-05T12:44:20.283Z,2835
2017-05-05T12:45:42.106Z,2975
2017-05-05T12:47:03.920Z,3290
2017-05-05T12:48:25.791Z,5200
2017-05-05T12:49:47.632Z,3865
2017-05-05T12:51:09.471Z,2375
2017-05-05T12:52:31.396Z,2120
2017-05-05T12:53:53.185Z,2200
2017-05-05T12:55:14.957Z,2345
2017-05-05T12:56:36.751Z,2310
2017-05-05T12:58:04.880Z,3125
2017-05-05T12:59:26.620Z,2070
2017-05-05T13:00:48.433Z,2695
2017-05-05T13:02:10.313Z,6380
2017-05-05T13:03:32.128Z,5810
2017-05-05T13:04:53.887Z,4915
2017-05-05T13:06:15.742Z,5525
2017-05-05T13:07:37.508Z,3645
2017-05-05T13:08:59.344Z,5460
2017-05-05T13:10:21.131Z,5215
2017-05-05T13:11:42.953Z,4525
2017-05-05T13:13:04.908Z,5745
2017-05-05T13:14:26.675Z,5515
2017-05-05T13:15:48.488Z,2715
2017-05-05T13:17:10.301Z,1920
2017-05-05T13:18:32.162Z,1850
2017-05-05T13:19:54.144Z,1850
2017-05-05T13:21:15.912Z,1970
2017-05-05T13:22:37.730Z,4765
2017-05-05T13:23:59.612Z,4205
2017-05-05T13:25:21.381Z,4930
2017-05-05T13:26:43.211Z,1520
2017-05-05T13:28:04.954Z,5140
2017-05-05T13:29:26.741Z,4965
2017-05-05T13:30:48.605Z,3130
2017-05-05T13:32:10.470Z,3060
2017-05-05T13:33:32.288Z,1965
2017-05-05T13:34:54.123Z,1580
2017-05-05T13:36:16.026Z,1535
2017-05-05T13:37:37.914Z,1870
2017-05-05T13:38:59.732Z,2000
2017-05-05T13:40:21.665Z,4160
2017-05-05T13:41:43.397Z,4875
2017-05-05T13:43:05.144Z,4885
2017-05-05T13:44:26.945Z,4425
2017-05-05T13:45:48.760Z,2760
2017-05-05T13:47:10.639Z,4155
2017-05-05T13:48:32.516Z,1850
2017-05-05T13:49:54.302Z,1700
2017-05-05T13:51:16.074Z,4845
2017-05-05T13:52:37.836Z,2530
2017-05-05T13:53:59.665Z,4755
2017-05-05T13:55:21.693Z,1775
2017-05-05T13:56:43.671Z,4920
2017-05-05T13:58:05.538Z,5270
2017-05-05T13:59:27.315Z,2005
2017-05-05T14:00:49.182Z,3845
2017-05-05T14:02:11.008Z,3245
2017-05-05T14:03:32.821Z,2945
2017-05-05T14:04:54.737Z,4095
2017-05-05T14:06:16.557Z,4260
2017-05-05T14:07:38.402Z,4170
2017-05-05T14:09:03.419Z,4060
2017-05-05T14:10:25.202Z,4015
2017-05-05T14:11:47.065Z,4105
2017-05-05T14:13:08.893Z,4080
2017-05-05T14:14:30.708Z,4070
2017-05-05T14:15:52.473Z,4230
2017-05-05T14:17:14.362Z,3655
2017-05-05T14:18:36.441Z,4000
2017-05-05T14:19:58.282Z,3670
2017-05-05T14:21:20.162Z,3745
2017-05-05T14:22:42.088Z,3835
2017-05-05T14:24:03.954Z,4190
2017-05-05T14:25:25.756Z,2590
2017-05-05T14:26:47.486Z,4020
2017-05-05T14:28:09.302Z,2435
2017-05-05T14:29:31.193Z,1450
2017-05-05T14:30:54.251Z,1395
2017-05-05T14:32:16.128Z,1395
2017-05-05T14:33:37.939Z,2185
2017-05-05T14:34:59.771Z,2145
2017-05-05T14:36:21.793Z,2435
2017-05-05T14:37:47.041Z,1400
2017-05-05T14:39:08.878Z,1200
2017-05-05T14:40:30.677Z,2320
2017-05-05T14:41:52.458Z,3540
2017-05-05T14:43:15.846Z,3590
2017-05-05T14:44:38.031Z,3585
2017-05-05T14:46:25.640Z,3420
2017-05-05T14:47:54.194Z,3315
2017-05-05T14:49:16.129Z,3300
2017-05-05T14:50:38.000Z,3390
2017-05-05T14:51:59.877Z,3370
2017-05-05T14:53:21.693Z,1505
2017-05-05T14:54:43.422Z,2940
2017-05-05T14:56:05.314Z,2945
2017-05-05T14:57:27.108Z,3240
2017-05-05T14:58:49.025Z,2980
2017-05-05T15:00:10.920Z,3015
2017-05-05T15:01:32.797Z,3270
2017-05-05T15:02:54.644Z,3170
2017-05-05T15:04:17.535Z,3100
2017-05-05T15:05:40.080Z,3150
2017-05-05T15:07:02.312Z,3035
2017-05-05T15:08:24.144Z,2825
2017-05-05T15:09:46.138Z,3075
2017-05-05T15:11:08.169Z,2990
2017-05-05T15:12:30.079Z,3025
2017-05-05T15:13:51.898Z,3020
2017-05-05T15:15:14.689Z,2800
2017-05-05T15:16:36.460Z,2685
2017-05-05T15:17:58.368Z,2900
2017-05-05T15:19:20.180Z,3075
2017-05-05T15:20:42.012Z,2785
2017-05-05T15:22:03.762Z,2635
2017-05-05T15:23:25.667Z,2865
2017-05-05T15:24:47.469Z,2845
2017-05-05T15:26:09.296Z,2785
2017-05-05T15:27:31.028Z,2545
2017-05-05T15:28:53.038Z,2455
2017-05-05T15:30:14.975Z,2485
2017-05-05T15:31:36.737Z,2455
2017-05-05T15:32:58.739Z,2455
2017-05-05T15:34:21.027Z,2665
2017-05-05T15:35:42.775Z,2480
2017-05-05T15:37:04.574Z,2425
2017-05-05T15:38:26.381Z,2425
2017-05-05T15:39:48.341Z,2525
2017-05-05T15:41:10.178Z,2425
2017-05-05T15:42:32.072Z,2605
2017-05-05T15:43:55.631Z,2435
2017-05-05T15:45:17.893Z,2335
2017-05-05T15:46:39.692Z,2170
2017-05-05T15:48:01.788Z,2240
2017-05-05T15:49:23.725Z,2215
2017-05-05T15:50:45.485Z,2255
2017-05-05T15:52:07.366Z,2435
2017-05-05T15:53:29.203Z,2285
2017-05-05T15:54:50.976Z,2165
2017-05-05T15:56:12.862Z,2100
2017-05-05T15:57:34.693Z,2015
2017-05-05T15:58:56.529Z,1975
2017-05-05T16:00:18.347Z,2020
2017-05-05T16:01:40.207Z,2045
2017-05-05T16:03:02.085Z,1955
2017-05-05T16:04:24.518Z,1815
2017-05-05T16:05:47.449Z,1825
2017-05-05T16:07:09.322Z,1770
2017-05-05T16:08:31.196Z,1930
2017-05-05T16:09:53.057Z,1855
2017-05-05T16:11:14.944Z,1755
2017-05-05T16:12:36.841Z,1835
2017-05-05T16:13:58.584Z,1765
2017-05-05T16:15:20.411Z,1755
2017-05-05T16:16:42.229Z,1715
2017-05-05T16:18:04.887Z,1320
2017-05-05T16:19:26.701Z,800
2017-05-05T16:20:48.454Z,785
2017-05-05T16:22:10.295Z,785
2017-05-05T16:23:32.471Z,775
2017-05-05T16:24:54.358Z,755
2017-05-05T16:26:16.272Z,740
2017-05-05T16:27:38.157Z,730
2017-05-05T16:29:00.099Z,720
2017-05-05T16:30:21.944Z,705
2017-05-05T16:31:44.394Z,690
2017-05-05T16:33:06.206Z,685
2017-05-05T16:34:28.215Z,675
2017-05-05T16:35:51.147Z,660
2017-05-05T16:37:13.009Z,660
2017-05-05T16:38:34.897Z,660
2017-05-05T16:39:56.780Z,645
2017-05-05T16:41:18.731Z,640
2017-05-05T16:42:40.425Z,635
2017-05-05T16:44:02.275Z,625
2017-05-05T16:45:24.044Z,620
2017-05-05T16:46:45.818Z,610
2017-05-05T16:48:07.525Z,580
2017-05-05T16:49:29.334Z,555
2017-05-05T16:50:51.172Z,530
2017-05-05T16:52:12.979Z,505
2017-05-05T16:53:34.790Z,470
2017-05-05T16:54:56.621Z,450
2017-05-05T16:56:18.477Z,440
2017-05-05T16:57:41.476Z,425
2017-05-05T16:59:03.346Z,415
2017-05-05T17:00:25.168Z,405
2017-05-05T17:01:47.076Z,395
2017-05-05T17:03:08.903Z,390
2017-05-05T17:04:30.807Z,380
2017-05-05T17:05:52.833Z,380
2017-05-05T17:07:14.679Z,365
2017-05-05T17:08:37.837Z,360
2017-05-05T17:09:59.688Z,355
2017-05-05T17:11:21.755Z,350
2017-05-05T17:12:44.621Z,350
2017-05-05T17:14:06.532Z,340
2017-05-05T17:15:29.438Z,335
2017-05-05T17:16:51.129Z,330
2017-05-05T17:18:13.091Z,320
2017-05-05T17:19:34.873Z,315
2017-05-05T17:20:56.752Z,310
2017-05-05T17:22:18.507Z,305
2017-05-05T17:23:40.528Z,300
2017-05-05T17:25:02.382Z,295
2017-05-05T17:26:24.304Z,290
2017-05-05T17:27:46.098Z,280
2017-05-05T17:29:08.062Z,275
2017-05-05T17:30:29.863Z,270
2017-05-05T17:31:51.628Z,265
2017-05-05T17:33:13.576Z,260
2017-05-05T17:34:35.394Z,250
2017-05-05T17:35:57.217Z,245
2017-05-05T17:37:19.084Z,240
2017-05-05T17:38:40.999Z,230
2017-05-05T17:40:03.237Z,225
2017-05-05T17:41:25.116Z,220
2017-05-05T17:42:46.996Z,215
2017-05-05T17:44:08.829Z,210
2017-05-05T17:45:30.653Z,205
2017-05-05T17:46:52.484Z,200
2017-05-05T17:48:14.398Z,195
2017-05-05T17:49:37.289Z,190
2017-05-05T17:50:59.245Z,185
2017-05-05T17:52:21.084Z,175
2017-05-05T17:53:42.965Z,170
2017-05-05T17:55:04.830Z,170
2017-05-05T17:56:26.719Z,160
2017-05-05T17:57:48.573Z,155
2017-05-05T17:59:11.424Z,150
2017-05-05T18:00:33.342Z,145
2017-05-05T18:01:55.343Z,135
2017-05-05T18:03:17.205Z,125
2017-05-05T18:04:39.063Z,120
2017-05-05T18:06:10.721Z,115
2017-05-05T18:07:32.626Z,115
2017-05-05T18:08:54.571Z,110
2017-05-05T18:10:16.397Z,105
2017-05-05T18:11:48.080Z,100
2017-05-05T18:13:09.948Z,90
2017-05-05T18:14:31.852Z,80
2017-05-05T18:15:53.721Z,75
2017-05-05T18:17:15.768Z,65
2017-05-05T18:18:37.770Z,60
2017-05-05T18:19:59.518Z,60
2017-05-05T18:21:21.408Z,55
2017-05-05T18:22:43.125Z,45
2017-05-05T18:24:05.031Z,45
2017-05-05T18:25:26.881Z,40
2017-05-05T18:26:48.840Z,35
2017-05-05T18:28:10.724Z,30
2017-05-05T18:29:32.652Z,25
2017-05-05T18:30:54.459Z,25
2017-05-05T18:32:16.242Z,20
2017-05-05T18:33:38.081Z,20
2017-05-05T18:35:00.039Z,15
2017-05-05T18:36:21.904Z,15
2017-05-05T18:37:43.753Z,10
2017-05-05T18:39:05.713Z,10
2017-05-05T18:40:27.618Z,10
2017-05-05T18:41:49.440Z,5
2017-05-05T18:43:11.308Z,5
2017-05-05T18:44:33.211Z,5
2017-05-05T18:45:55.078Z,5
2017-05-05T18:47:16.913Z,5
2017-05-05T18:48:38.824Z,0
2017-05-05T18:50:00.708Z,0
2017-05-05T18:51:22.440Z,0
2017-05-05T18:52:44.941Z,0
2017-05-05T18:54:06.694Z,0
2017-05-05T18:55:28.614Z,0
2017-05-05T18:56:50.496Z,0
2017-05-05T18:58:12.250Z,0
2017-05-05T18:59:34.135Z,0
2017-05-05T19:00:56.089Z,0
2017-05-05T19:02:17.949Z,0
2017-05-05T19:03:39.838Z,0
2017-05-05T19:05:01.745Z,0
2017-05-05T19:06:23.486Z,0
2017-05-05T19:07:45.316Z,0
2017-05-05T19:09:07.226Z,0